Time;durP1;ratioP1;P1;durP2;ratioP2;P2;SDS_P1;SDS_P2;PMS_P1;PMS_P2;Temp;Humidity;BMP_temperature;BMP_pressure;BME280_temperature;BME280_humidity;BME280_pressure;Samples;Min_cycle;Max_cycle;Signal;HPM_P1;HPM_P2
2021/03/18 00:00:11;;;;;;;44.63;24.80;;;;;;;7.25;55.49;71361.41;4997579;28;20065;-85
2021/03/18 00:02:38;;;;;;;52.22;24.63;;;;;;;7.21;55.21;71356.69;4998140;28;20521;-87
2021/03/18 00:05:08;;;;;;;52.00;25.98;;;;;;;7.56;54.58;71395.88;4997163;28;20037;-86
2021/03/18 00:07:36;;;;;;;38.13;18.85;;;;;;;7.83;54.45;71426.78;4990939;28;20033;-87
2021/03/18 00:10:05;;;;;;;61.53;26.05;;;;;;;7.80;55.64;71421.66;5013264;28;20391;-87
2021/03/18 00:12:33;;;;;;;59.00;24.13;;;;;;;8.03;54.64;71449.97;4997780;28;20161;-87
2021/03/18 00:15:06;;;;;;;63.75;26.27;;;;;;;7.22;54.35;71351.78;5014075;28;20049;-87
2021/03/18 00:17:34;;;;;;;52.53;27.25;;;;;;;8.00;54.38;71447.00;4998333;28;20030;-86
2021/03/18 00:20:04;;;;;;;72.10;30.33;;;;;;;7.78;53.86;71419.28;5014213;28;20113;-87
2021/03/18 00:22:31;;;;;;;62.50;29.10;;;;;;;8.25;53.58;71475.53;5015896;28;20054;-86
2021/03/18 00:24:58;;;;;;;60.38;30.77;;;;;;;8.28;54.00;71479.09;5012431;28;20045;-87
2021/03/18 00:27:25;;;;;;;60.92;30.52;;;;;;;8.02;52.87;71443.91;5016298;28;20037;-87
2021/03/18 00:29:52;;;;;;;61.22;32.47;;;;;;;8.98;53.07;71559.41;4998971;28;20391;-86
2021/03/18 00:32:19;;;;;;;72.05;36.03;;;;;;;8.47;52.80;71497.78;4997966;28;20390;-86
2021/03/18 00:34:46;;;;;;;65.93;36.25;;;;;;;8.33;52.99;71485.03;4997469;28;20021;-86
2021/03/18 00:37:13;;;;;;;69.88;36.92;;;;;;;8.96;52.99;71553.69;5013889;28;20473;-87
2021/03/18 00:39:40;;;;;;;59.25;34.83;;;;;;;8.90;52.26;71550.50;4998277;28;20036;-87
2021/03/18 00:42:07;;;;;;;75.40;39.20;;;;;;;9.44;51.67;71612.38;5018666;28;20060;-86
2021/03/18 00:44:34;;;;;;;73.30;39.88;;;;;;;9.21;51.83;71582.84;5020609;28;20018;-86
2021/03/18 00:47:01;;;;;;;72.85;37.08;;;;;;;9.55;52.07;71621.53;5000289;28;20030;-86
2021/03/18 00:49:28;;;;;;;71.93;37.00;;;;;;;8.12;52.63;71460.06;4998692;28;20030;-87
2021/03/18 00:51:55;;;;;;;96.32;41.38;;;;;;;9.04;51.66;71565.97;4997149;28;20428;-86
2021/03/18 00:54:22;;;;;;;79.00;40.97;;;;;;;9.13;52.54;71576.06;5013183;28;20022;-86
2021/03/18 00:56:49;;;;;;;97.05;45.08;;;;;;;8.93;52.67;71552.88;5013627;28;20018;-85
2021/03/18 00:59:16;;;;;;;86.50;45.10;;;;;;;8.86;52.69;71545.16;5013823;28;20033;-86
2021/03/18 01:01:43;;;;;;;85.50;44.08;;;;;;;9.45;52.43;71613.56;4996661;28;20026;-87
2021/03/18 01:04:10;;;;;;;107.97;43.90;;;;;;;9.60;51.51;71630.22;4996063;28;20010;-84
2021/03/18 01:06:38;;;;;;;69.95;36.95;;;;;;;9.79;51.30;71648.91;5013481;28;20038;-85
2021/03/18 01:09:06;;;;;;;76.65;42.75;;;;;;;9.95;51.99;71667.38;4996539;28;20026;-87
2021/03/18 01:11:38;;;;;;;79.38;37.55;;;;;;;9.47;50.69;71612.00;5013285;28;20041;-86
2021/03/18 01:14:08;;;;;;;84.43;36.25;;;;;;;10.16;50.41;71693.94;4999891;28;20029;-87
2021/03/18 01:16:40;;;;;;;83.78;36.42;;;;;;;9.72;50.35;71641.78;4998124;28;20045;-85
2021/03/18 01:19:10;;;;;;;79.05;37.63;;;;;;;9.90;50.51;71664.75;4997037;28;20883;-88
2021/03/18 01:21:43;;;;;;;78.90;35.27;;;;;;;10.21;49.73;71700.47;4996262;28;20049;-86
2021/03/18 01:24:11;;;;;;;53.50;32.95;;;;;;;10.61;48.24;71740.28;5018601;28;20401;-86
2021/03/18 01:26:41;;;;;;;62.95;36.03;;;;;;;10.72;47.53;71756.13;4998188;28;20030;-86
2021/03/18 01:29:08;;;;;;;58.75;30.98;;;;;;;10.06;47.81;71682.63;4998693;28;20040;-86
2021/03/18 01:31:36;;;;;;;69.82;35.05;;;;;;;10.68;47.15;71751.34;5001327;28;20445;-86
2021/03/18 01:34:05;;;;;;;62.03;32.63;;;;;;;10.58;46.99;71736.72;5000467;28;20040;-85
2021/03/18 01:36:34;;;;;;;66.50;32.70;;;;;;;10.54;47.17;71738.03;4998477;28;20483;-85
2021/03/18 01:39:02;;;;;;;61.88;29.70;;;;;;;10.28;46.07;71708.22;4997415;28;20022;-85
2021/03/18 01:41:29;;;;;;;64.75;31.85;;;;;;;10.59;45.04;71740.63;5014395;28;20029;-85
2021/03/18 01:43:56;;;;;;;65.00;32.50;;;;;;;10.56;44.04;71737.06;4996907;28;20124;-84
2021/03/18 01:46:24;;;;;;;76.55;33.63;;;;;;;11.08;44.58;71797.84;4996655;28;20033;-85
2021/03/18 01:48:52;;;;;;;86.82;32.72;;;;;;;10.77;44.64;71761.50;5014881;28;20061;-86
2021/03/18 01:51:21;;;;;;;72.22;35.45;;;;;;;10.72;44.88;71758.88;5014300;28;20501;-86
2021/03/18 01:53:49;;;;;;;78.80;37.78;;;;;;;10.11;44.92;71688.59;4996153;28;20042;-86
2021/03/18 01:56:17;;;;;;;72.60;35.80;;;;;;;10.94;45.26;71783.91;5013356;28;20037;-86
2021/03/18 01:58:46;;;;;;;75.22;37.72;;;;;;;10.17;45.14;71695.72;5015580;28;20663;-86
2021/03/18 02:01:15;;;;;;;83.10;40.47;;;;;;;10.49;46.34;71729.94;5016460;28;20037;-85
2021/03/18 02:03:42;;;;;;;72.68;39.75;;;;;;;10.73;46.16;71760.06;5015462;28;20026;-87
2021/03/18 02:06:10;;;;;;;80.63;37.30;;;;;;;10.80;45.58;71768.41;4993735;28;20395;-87
2021/03/18 02:08:37;;;;;;;86.97;39.80;;;;;;;11.17;44.79;71810.13;4993224;28;20373;-86
2021/03/18 02:11:06;;;;;;;81.65;37.83;;;;;;;11.22;45.07;71813.31;4993071;28;20157;-86
2021/03/18 02:13:33;;;;;;;61.97;35.03;;;;;;;10.90;45.21;71776.38;5009558;28;20545;-86
2021/03/18 02:16:09;;;;;;;67.95;35.75;;;;;;;11.87;45.19;71891.19;4995372;28;20045;-87
2021/03/18 02:19:13;;;;;;;76.72;38.88;;;;;;;11.64;45.12;71862.19;4996539;28;20030;-87
2021/03/18 02:22:01;;;;;;;75.13;37.75;;;;;;;11.80;45.21;71876.72;4996156;28;20073;-86
2021/03/18 02:24:38;;;;;;;81.82;37.95;;;;;;;11.96;44.80;71898.59;4997340;28;20034;-87
2021/03/18 02:27:34;;;;;;;67.85;35.47;;;;;;;12.02;44.80;71902.38;5014011;28;20057;-86
2021/03/18 02:30:48;;;;;;;66.13;37.35;;;;;;;11.93;45.14;71897.16;4995192;28;20502;-87
2021/03/18 02:33:24;;;;;;;78.57;36.78;;;;;;;11.99;44.93;71902.16;4955008;28;20026;-85
2021/03/18 02:36:03;;;;;;;75.50;38.45;;;;;;;11.89;45.17;71890.81;4992100;28;20041;-88
2021/03/18 02:38:39;;;;;;;70.10;38.97;;;;;;;10.59;45.47;71740.63;5001570;28;20454;-86
2021/03/18 02:41:17;;;;;;;72.05;39.78;;;;;;;12.03;45.59;71903.59;5012379;28;20084;-86
2021/03/18 02:43:56;;;;;;;79.75;39.25;;;;;;;12.11;45.32;71918.03;5015640;28;20482;-87
2021/03/18 02:46:24;;;;;;;73.00;40.85;;;;;;;12.04;45.11;71907.53;5012122;28;20026;-86
2021/03/18 02:48:55;;;;;;;76.90;37.58;;;;;;;12.33;45.47;71938.19;4994805;28;20030;-85
2021/03/18 02:51:26;;;;;;;64.60;36.95;;;;;;;12.28;45.23;71932.22;4994828;28;20430;-85
2021/03/18 02:53:54;;;;;;;70.63;38.05;;;;;;;12.88;44.77;72006.94;5010496;28;20112;-86
2021/03/18 02:56:23;;;;;;;75.93;37.88;;;;;;;12.97;45.49;72014.31;4993830;28;20022;-86
2021/03/18 02:58:54;;;;;;;74.65;40.15;;;;;;;12.67;45.64;71976.94;5010341;28;20038;-87
2021/03/18 03:01:23;;;;;;;71.82;36.13;;;;;;;11.30;46.83;71822.84;4984020;28;20046;-87
2021/03/18 03:03:54;;;;;;;73.20;35.87;;;;;;;12.79;46.58;71993.44;4979928;28;20070;-86
2021/03/18 03:06:21;;;;;;;67.18;39.17;;;;;;;12.04;46.37;71904.78;4987370;28;20120;-86
2021/03/18 03:08:49;;;;;;;71.10;37.65;;;;;;;11.97;47.26;71901.91;4975164;28;20428;-87
2021/03/18 03:11:20;;;;;;;73.95;35.83;;;;;;;11.54;48.49;71846.94;4975723;28;20094;-86
2021/03/18 03:13:51;;;;;;;70.35;35.72;;;;;;;11.82;48.15;71881.88;4980596;28;20032;-85
2021/03/18 03:16:22;;;;;;;73.53;40.83;;;;;;;12.33;48.66;71943.69;5017571;28;20026;-87
2021/03/18 03:18:51;;;;;;;80.85;41.08;;;;;;;11.67;47.88;71867.34;5032559;28;20026;-86
2021/03/18 03:21:19;;;;;;;72.00;43.60;;;;;;;12.05;48.01;71908.72;5012476;28;20376;-86
2021/03/18 03:23:47;;;;;;;77.45;44.42;;;;;;;11.06;48.29;71798.19;5012506;28;20041;-86
2021/03/18 03:26:21;;;;;;;85.18;47.03;;;;;;;11.03;48.53;71794.63;5014748;28;20040;-85
2021/03/18 03:28:49;;;;;;;76.72;46.92;;;;;;;11.15;48.11;71807.72;5013368;28;20030;-85
2021/03/18 03:31:18;;;;;;;91.82;47.88;;;;;;;12.30;47.30;71940.72;5010246;28;20552;-87
2021/03/18 03:33:45;;;;;;;92.72;45.95;;;;;;;11.84;47.32;71884.84;4995821;28;20026;-86
2021/03/18 03:36:13;;;;;;;82.43;45.72;;;;;;;12.22;46.39;71930.56;5013492;28;20356;-86
2021/03/18 03:38:40;;;;;;;87.05;46.20;;;;;;;12.28;46.32;71937.72;5015747;28;20483;-87
2021/03/18 03:41:08;;;;;;;76.40;44.60;;;;;;;12.83;46.11;71998.81;4998234;28;20026;-85
2021/03/18 03:43:35;;;;;;;86.20;47.53;;;;;;;12.00;45.80;71900.59;5016324;28;20033;-86
2021/03/18 03:46:03;;;;;;;87.93;47.97;;;;;;;12.13;45.95;71918.25;5016321;28;20022;-86
2021/03/18 03:48:33;;;;;;;82.78;46.50;;;;;;;12.64;45.72;71976.72;4999036;28;20034;-87
2021/03/18 03:51:04;;;;;;;85.25;47.95;;;;;;;13.38;45.58;72059.28;5017899;28;20022;-86
2021/03/18 03:53:58;;;;;;;82.68;49.30;;;;;;;13.34;45.34;72056.69;4999461;28;20129;-86
2021/03/18 03:56:34;;;;;;;91.18;47.88;;;;;;;13.63;44.83;72090.13;4993707;28;20451;-86
2021/03/18 03:59:10;;;;;;;90.63;50.65;;;;;;;13.58;44.19;72082.00;4995938;28;20121;-86
2021/03/18 04:01:43;;;;;;;96.93;50.05;;;;;;;13.79;44.20;72106.47;4997821;28;20036;-87
2021/03/18 04:04:15;;;;;;;96.18;49.10;;;;;;;13.11;44.23;72030.41;5015206;28;20033;-86
2021/03/18 04:06:45;;;;;;;82.63;47.67;;;;;;;12.89;44.32;72005.34;5006627;28;20541;-86
2021/03/18 04:09:18;;;;;;;92.20;51.85;;;;;;;12.57;44.98;71965.63;5001521;28;20034;-86
2021/03/18 04:11:46;;;;;;;105.40;50.92;;;;;;;13.21;44.98;72039.63;5016463;28;20034;-85
2021/03/18 04:14:14;;;;;;;80.72;47.28;;;;;;;13.35;44.96;72057.88;5015728;28;20034;-86
2021/03/18 04:16:44;;;;;;;81.97;48.63;;;;;;;12.72;44.78;71985.69;4997577;28;20026;-87
2021/03/18 04:19:17;;;;;;;94.97;49.80;;;;;;;12.76;45.04;71987.69;4997466;28;20025;-87
2021/03/18 04:21:48;;;;;;;94.43;50.20;;;;;;;13.06;44.80;72019.53;5012545;28;20474;-86
2021/03/18 04:24:16;;;;;;;91.30;50.45;;;;;;;13.65;43.84;72090.38;4996836;28;20033;-86
2021/03/18 04:26:44;;;;;;;92.47;49.92;;;;;;;13.47;44.07;72068.84;4997183;28;20504;-88
2021/03/18 04:29:13;;;;;;;86.75;52.38;;;;;;;12.65;44.70;71975.16;5012810;28;20077;-87
2021/03/18 04:31:42;;;;;;;93.75;54.42;;;;;;;13.35;43.55;72055.13;4997558;28;20029;-86
2021/03/18 04:34:13;;;;;;;102.15;55.08;;;;;;;13.41;42.66;72065.03;5014433;28;20030;-87
2021/03/18 04:36:44;;;;;;;102.45;58.10;;;;;;;13.25;42.50;72047.13;4998873;28;20088;-88
2021/03/18 04:39:12;;;;;;;102.15;55.83;;;;;;;12.73;42.84;71984.69;5014316;28;20053;-86
2021/03/18 04:41:39;;;;;;;94.97;57.47;;;;;;;13.22;43.11;72046.31;5015429;28;20029;-87
2021/03/18 04:44:08;;;;;;;95.05;55.30;;;;;;;12.70;43.40;71986.66;4996615;28;20018;-87
2021/03/18 04:46:37;;;;;;;101.40;53.88;;;;;;;12.76;43.01;71987.09;4997553;28;20034;-86
2021/03/18 04:49:05;;;;;;;105.45;53.78;;;;;;;12.71;44.33;71987.22;5015451;28;20030;-87
2021/03/18 04:51:32;;;;;;;102.25;53.88;;;;;;;12.59;44.65;71968.00;5018347;28;20052;-87
2021/03/18 04:54:00;;;;;;;97.30;53.90;;;;;;;12.89;44.43;72005.34;4997436;28;20619;-87
2021/03/18 04:56:28;;;;;;;106.30;52.67;;;;;;;11.94;43.61;71898.94;5013978;28;20040;-86
2021/03/18 04:58:58;;;;;;;85.88;51.83;;;;;;;12.50;43.82;71963.38;5013952;28;20049;-85
2021/03/18 05:01:29;;;;;;;97.03;56.37;;;;;;;12.52;44.08;71959.63;4995980;28;20118;-88
2021/03/18 05:03:56;;;;;;;86.72;52.63;;;;;;;12.35;45.17;71945.50;5013862;28;20022;-85
2021/03/18 05:06:27;;;;;;;96.22;52.58;;;;;;;12.41;45.58;71949.88;5013792;28;20052;-86
2021/03/18 05:08:55;;;;;;;91.93;50.90;;;;;;;11.76;46.11;71878.06;4996344;28;20026;-86
2021/03/18 05:11:23;;;;;;;100.90;51.72;;;;;;;12.07;45.91;71908.38;4995799;28;20022;-86
2021/03/18 05:13:51;;;;;;;85.25;51.80;;;;;;;11.76;46.36;71875.31;5026898;28;20158;-86
2021/03/18 05:16:19;;;;;;;88.97;52.55;;;;;;;12.09;46.09;71913.50;5015133;28;20040;-86
2021/03/18 05:18:46;;;;;;;99.13;50.42;;;;;;;11.92;44.92;71891.03;5014189;28;20021;-86
2021/03/18 05:21:14;;;;;;;89.30;49.90;;;;;;;11.77;45.34;71876.53;5014094;28;20059;-87
2021/03/18 05:24:00;;;;;;;73.70;46.85;;;;;;;12.55;45.49;71963.22;5015252;28;20033;-86
2021/03/18 05:26:27;;;;;;;83.68;50.65;;;;;;;12.27;45.92;71931.03;5015387;28;20122;-87
2021/03/18 05:28:54;;;;;;;91.28;47.97;;;;;;;11.98;45.66;71898.19;5031427;28;20025;-86
2021/03/18 05:31:23;;;;;;;89.35;49.67;;;;;;;12.29;44.86;71938.91;5031585;28;20111;-88
2021/03/18 05:33:52;;;;;;;86.78;49.10;;;;;;;12.70;43.94;71986.66;5014948;28;20479;-87
2021/03/18 05:36:20;;;;;;;88.40;48.10;;;;;;;13.04;43.75;72019.31;5013220;28;20434;-86
2021/03/18 05:38:47;;;;;;;96.97;51.67;;;;;;;11.68;44.63;71863.03;5013073;28;20018;-86
2021/03/18 05:41:14;;;;;;;90.82;49.40;;;;;;;12.34;44.23;71941.53;5012143;28;20030;-86
2021/03/18 05:43:42;;;;;;;96.88;50.17;;;;;;;12.32;44.78;71942.50;4995582;28;20104;-87
2021/03/18 05:46:09;;;;;;;87.30;48.35;;;;;;;12.43;45.07;71946.75;5011405;28;20045;-85
2021/03/18 05:48:36;;;;;;;92.63;49.60;;;;;;;11.95;44.57;71899.53;4991870;28;20038;-86
2021/03/18 05:51:07;;;;;;;87.18;47.08;;;;;;;12.07;44.65;71913.88;4994868;28;20058;-86
2021/03/18 05:53:34;;;;;;;94.82;46.00;;;;;;;11.95;45.09;71899.53;4995894;28;20061;-85
2021/03/18 05:56:01;;;;;;;86.35;46.08;;;;;;;11.80;45.25;71877.34;4996285;28;20092;-87
2021/03/18 05:58:30;;;;;;;87.05;45.42;;;;;;;11.71;45.82;71866.59;4998327;28;20542;-86
2021/03/18 06:00:57;;;;;;;66.32;40.45;;;;;;;12.59;46.23;71971.34;5000261;28;20026;-86
2021/03/18 06:03:24;;;;;;;89.68;42.38;;;;;;;12.42;46.87;71954.41;4999676;28;20832;-86
2021/03/18 06:05:51;;;;;;;82.93;43.17;;;;;;;12.68;47.16;71983.66;5000310;28;20475;-85
2021/03/18 06:08:18;;;;;;;76.35;43.72;;;;;;;12.22;47.27;71928.41;5002217;28;20061;-85
2021/03/18 06:10:45;;;;;;;79.40;45.95;;;;;;;11.52;46.93;71847.31;4999544;28;20018;-86
2021/03/18 06:13:13;;;;;;;76.85;45.28;;;;;;;12.14;45.95;71922.22;4997764;28;20471;-87
2021/03/18 06:15:40;;;;;;;91.32;49.28;;;;;;;11.56;45.63;71854.81;5016533;28;20034;-87
2021/03/18 06:18:10;;;;;;;103.85;53.35;;;;;;;11.68;45.09;71868.53;5000311;28;20091;-86
2021/03/18 06:20:38;;;;;;;95.07;48.80;;;;;;;11.67;45.89;71867.94;5018747;28;20026;-86
2021/03/18 06:23:09;;;;;;;94.60;54.58;;;;;;;11.25;48.24;71819.06;5012601;28;20069;-87
2021/03/18 06:25:38;;;;;;;88.22;46.08;;;;;;;11.42;48.78;71838.72;4995191;28;20029;-86
2021/03/18 06:28:11;;;;;;;80.75;45.25;;;;;;;11.67;48.81;71867.34;4995014;28;20367;-88
2021/03/18 06:30:54;;;;;;;77.38;45.97;;;;;;;11.66;47.65;71860.63;5010817;28;20489;-87
2021/03/18 06:33:31;;;;;;;85.30;46.95;;;;;;;11.62;46.93;71862.56;4994703;28;20034;-87
2021/03/18 06:35:59;;;;;;;76.75;44.28;;;;;;;11.44;46.44;71841.09;5013138;28;20018;-86
2021/03/18 06:38:31;;;;;;;77.78;44.00;;;;;;;10.69;45.10;71749.81;5011058;28;20125;-86
2021/03/18 06:40:59;;;;;;;83.18;42.42;;;;;;;11.62;43.86;71859.22;5010736;28;20026;-86
2021/03/18 06:43:43;;;;;;;71.03;44.47;;;;;;;11.20;45.27;71813.69;4994144;28;20614;-86
2021/03/18 06:46:28;;;;;;;78.68;44.25;;;;;;;11.55;45.75;71854.22;5009843;28;20026;-87
2021/03/18 06:48:55;;;;;;;84.80;45.15;;;;;;;11.31;47.59;71824.06;4993415;28;20034;-85
2021/03/18 06:51:26;;;;;;;94.15;47.55;;;;;;;11.67;48.03;71864.59;5008428;28;20037;-87
2021/03/18 06:53:55;;;;;;;72.50;44.08;;;;;;;11.45;49.20;71842.28;5004814;28;20113;-86
2021/03/18 06:56:40;;;;;;;70.30;41.42;;;;;;;10.46;50.07;71723.00;4994312;28;20117;-86
2021/03/18 06:59:24;;;;;;;77.10;43.15;;;;;;;11.19;50.18;71812.50;5012236;28;20554;-86
2021/03/18 07:02:08;;;;;;;66.50;39.33;;;;;;;12.00;49.63;71903.34;5002641;28;21248;-85
2021/03/18 07:04:42;;;;;;;72.88;39.33;;;;;;;11.71;48.53;71866.59;5018244;28;20377;-86
2021/03/18 07:07:11;;;;;;;74.25;41.55;;;;;;;12.29;46.27;71939.50;5014500;28;20058;-87
2021/03/18 07:09:39;;;;;;;77.15;40.08;;;;;;;11.68;44.96;71866.38;5016311;28;20022;-86
2021/03/18 07:12:09;;;;;;;63.65;36.75;;;;;;;11.50;44.07;71846.13;4999659;28;20061;-85
2021/03/18 07:14:42;;;;;;;73.95;41.42;;;;;;;11.46;43.66;71843.47;4998950;28;20026;-87
2021/03/18 07:17:11;;;;;;;75.47;40.90;;;;;;;11.13;43.24;71802.59;4995264;28;20034;-87
2021/03/18 07:19:38;;;;;;;64.75;38.85;;;;;;;11.52;43.12;71850.06;4995766;28;20037;-86
2021/03/18 07:22:05;;;;;;;63.45;37.60;;;;;;;11.57;43.26;71856.63;4984813;28;20046;-86
2021/03/18 07:24:36;;;;;;;69.75;38.03;;;;;;;11.78;42.53;71878.28;5015859;28;20033;-86
2021/03/18 07:27:15;;;;;;;77.00;38.08;;;;;;;11.76;42.27;71875.31;5000127;28;20088;-88
2021/03/18 07:29:47;;;;;;;65.53;37.00;;;;;;;11.82;42.12;71882.47;4985494;28;20406;-91
2021/03/18 07:32:15;;;;;;;77.13;39.85;;;;;;;11.28;43.20;71823.22;5012110;28;20033;-88
2021/03/18 07:34:45;;;;;;;69.85;37.38;;;;;;;11.05;43.47;71796.41;5001325;28;20434;-85
2021/03/18 07:37:13;;;;;;;64.88;40.72;;;;;;;11.58;44.10;71854.47;4994021;28;20033;-83
2021/03/18 07:39:41;;;;;;;66.43;39.28;;;;;;;11.89;43.99;71893.56;5003338;28;20100;-84
2021/03/18 07:42:10;;;;;;;66.40;38.33;;;;;;;11.50;44.25;71845.50;4993503;28;20121;-81
2021/03/18 07:44:41;;;;;;;76.85;43.25;;;;;;;10.51;44.68;71731.69;5004520;28;20030;-85
2021/03/18 07:47:10;;;;;;;92.88;42.85;;;;;;;11.01;45.83;71789.50;4995735;28;20467;-86
2021/03/18 07:49:41;;;;;;;81.55;41.78;;;;;;;11.21;46.46;71814.88;5010174;28;20021;-83
2021/03/18 07:52:15;;;;;;;78.00;41.20;;;;;;;12.13;45.94;71920.44;4994340;28;20053;-83
2021/03/18 07:54:47;;;;;;;74.28;41.30;;;;;;;11.56;45.89;71852.06;4994007;28;20030;-84
2021/03/18 07:57:15;;;;;;;74.32;42.03;;;;;;;11.27;46.70;71818.69;5004758;28;20030;-84
2021/03/18 07:59:43;;;;;;;78.72;41.30;;;;;;;11.40;46.55;71830.84;5010400;28;20025;-83
2021/03/18 08:02:12;;;;;;;75.85;42.83;;;;;;;11.17;47.91;71807.38;4998668;28;20029;-83
2021/03/18 08:04:46;;;;;;;75.68;42.65;;;;;;;11.13;48.76;71805.97;4982557;28;20090;-84
2021/03/18 08:07:38;;;;;;;77.15;40.83;;;;;;;11.85;48.71;71886.06;5006782;28;20042;-84
2021/03/18 08:10:14;;;;;;;72.13;41.35;;;;;;;11.80;49.45;71876.72;5001198;28;20052;-83
2021/03/18 08:12:48;;;;;;;83.35;44.17;;;;;;;10.90;50.13;71779.13;5003248;28;20068;-83
2021/03/18 08:15:27;;;;;;;85.97;42.17;;;;;;;9.36;49.06;71602.84;4980409;28;20026;-83
2021/03/18 08:17:56;;;;;;;83.53;42.85;;;;;;;10.67;49.86;71752.91;5004659;28;20472;-84
2021/03/18 08:20:41;;;;;;;79.30;43.10;;;;;;;11.13;49.53;71805.97;5004863;28;20553;-84
2021/03/18 08:23:26;;;;;;;71.55;41.47;;;;;;;11.25;48.94;71814.16;4983778;28;20049;-83
2021/03/18 08:26:00;;;;;;;80.53;42.15;;;;;;;11.30;49.04;71820.09;5005499;28;20170;-83
2021/03/18 08:28:59;;;;;;;75.93;41.50;;;;;;;11.19;49.93;71809.75;5009184;28;20398;-83
2021/03/18 08:31:43;;;;;;;86.40;45.15;;;;;;;11.15;48.94;71802.84;4989445;28;20030;-83
2021/03/18 08:34:10;;;;;;;77.03;44.50;;;;;;;10.95;49.27;71785.09;5001226;28;20040;-83
2021/03/18 08:36:37;;;;;;;77.70;42.05;;;;;;;11.14;49.34;71806.53;5009759;28;20033;-85
2021/03/18 08:39:06;;;;;;;70.35;39.80;;;;;;;11.17;48.93;71807.38;5009906;28;20029;-83
2021/03/18 08:41:43;;;;;;;76.93;43.47;;;;;;;10.39;49.71;71715.84;4992087;28;20433;-84
2021/03/18 08:44:18;;;;;;;60.22;40.00;;;;;;;10.81;48.69;71764.09;5005624;28;20088;-83
2021/03/18 08:47:03;;;;;;;68.22;42.50;;;;;;;9.74;48.62;71643.56;4988714;28;20050;-83
2021/03/18 08:49:41;;;;;;;80.68;45.20;;;;;;;10.38;48.62;71719.53;5006763;28;20029;-83
2021/03/18 08:52:12;;;;;;;74.55;39.67;;;;;;;10.77;50.40;71761.50;4983346;28;20010;-84
2021/03/18 08:54:39;;;;;;;82.55;41.17;;;;;;;10.75;49.00;71759.13;5012953;28;20032;-84
2021/03/18 08:57:30;;;;;;;75.22;40.40;;;;;;;10.40;50.09;71722.53;5013307;28;20370;-83
2021/03/18 09:00:01;;;;;;;78.10;42.22;;;;;;;9.24;51.11;71588.56;5012925;28;20525;-84
2021/03/18 09:02:34;;;;;;;79.45;39.08;;;;;;;10.39;51.38;71720.72;4994875;28;20034;-83
2021/03/18 09:05:06;;;;;;;71.35;40.53;;;;;;;10.04;52.90;71675.34;4995072;28;20034;-83
2021/03/18 09:07:33;;;;;;;73.03;42.88;;;;;;;9.53;52.03;71619.75;4993019;28;20046;-87
2021/03/18 09:10:03;;;;;;;75.30;39.38;;;;;;;10.57;52.31;71738.84;4997422;28;20049;-83
2021/03/18 09:12:53;;;;;;;65.30;38.50;;;;;;;10.41;52.29;71723.13;5012088;28;20380;-85
2021/03/18 09:15:30;;;;;;;73.63;42.47;;;;;;;9.51;52.30;71619.53;4996235;28;20034;-83
2021/03/18 09:18:28;;;;;;;68.32;38.47;;;;;;;9.99;52.77;71675.47;4994716;28;20056;-83
2021/03/18 09:21:00;;;;;;;79.13;42.15;;;;;;;10.12;52.69;71689.78;4994712;28;20034;-83
2021/03/18 09:23:33;;;;;;;70.65;42.67;;;;;;;10.26;53.00;71706.44;5014547;28;20534;-84
2021/03/18 09:26:03;;;;;;;86.00;41.55;;;;;;;9.63;52.86;71633.22;5014521;28;20052;-85
2021/03/18 09:28:34;;;;;;;69.78;39.85;;;;;;;9.43;53.63;71605.69;5015322;28;20041;-85
2021/03/18 09:31:02;;;;;;;81.30;42.28;;;;;;;9.55;53.51;71624.28;5030108;28;20061;-83
2021/03/18 09:33:31;;;;;;;70.80;42.08;;;;;;;10.18;54.22;71694.16;5031058;28;20064;-84
2021/03/18 09:36:04;;;;;;;77.68;41.88;;;;;;;9.80;54.04;71652.88;5016978;28;21161;-85
2021/03/18 09:38:34;;;;;;;79.38;42.20;;;;;;;8.71;53.44;71525.16;4990167;28;20491;-83
2021/03/18 09:41:02;;;;;;;74.25;43.05;;;;;;;9.07;53.18;71566.78;4989298;28;20098;-85
2021/03/18 09:43:30;;;;;;;77.82;42.17;;;;;;;9.44;53.80;71611.78;5011748;28;20174;-84
2021/03/18 09:46:05;;;;;;;74.63;39.97;;;;;;;10.10;53.92;71687.41;4987394;28;20395;-84
2021/03/18 09:48:38;;;;;;;72.82;39.85;;;;;;;8.41;54.06;71493.97;4992106;28;20065;-84
2021/03/18 09:51:24;;;;;;;70.88;41.75;;;;;;;9.28;55.08;71593.91;4992843;28;20061;-84
2021/03/18 09:54:01;;;;;;;73.55;41.85;;;;;;;9.72;56.21;71639.03;4991752;28;20030;-83
2021/03/18 09:56:28;;;;;;;68.53;40.22;;;;;;;8.90;56.25;71545.00;4991746;28;20030;-83
2021/03/18 09:59:02;;;;;;;72.40;40.33;;;;;;;8.66;56.81;71522.53;4993677;28;20083;-82
2021/03/18 10:01:31;;;;;;;86.28;44.53;;;;;;;9.22;57.57;71583.44;5011712;28;20057;-83
2021/03/18 10:04:06;;;;;;;88.15;42.20;;;;;;;7.72;58.24;71414.31;4994591;28;20117;-83
2021/03/18 10:06:41;;;;;;;82.53;43.47;;;;;;;9.04;58.31;71565.97;4994086;28;20084;-83
2021/03/18 10:09:20;;;;;;;87.20;42.50;;;;;;;8.48;59.45;71502.28;4995075;28;20030;-84
2021/03/18 10:11:50;;;;;;;68.68;40.65;;;;;;;8.54;59.99;71508.84;4994640;28;20470;-83
2021/03/18 10:14:18;;;;;;;77.20;42.28;;;;;;;8.41;57.71;71491.22;4994523;28;20749;-84
2021/03/18 10:16:47;;;;;;;77.82;44.38;;;;;;;7.88;57.55;71430.00;4995150;28;20040;-84
2021/03/18 10:19:15;;;;;;;78.90;40.22;;;;;;;9.04;57.20;71560.50;4983417;28;20542;-83
2021/03/18 10:21:45;;;;;;;70.15;41.63;;;;;;;8.71;56.85;71525.16;4992521;28;20058;-84
2021/03/18 10:24:14;;;;;;;79.10;43.40;;;;;;;8.75;57.19;71529.91;5005828;28;20064;-83
2021/03/18 10:26:43;;;;;;;84.55;45.53;;;;;;;8.13;56.12;71461.28;4995227;28;20380;-82
2021/03/18 10:29:12;;;;;;;71.78;45.63;;;;;;;8.21;55.72;71471.38;5012807;28;20118;-84
2021/03/18 10:31:41;;;;;;;88.00;49.00;;;;;;;8.66;55.45;71522.53;4998959;28;20049;-85
2021/03/18 10:34:28;;;;;;;75.22;43.92;;;;;;;8.36;55.54;71488.03;5012854;28;20040;-86
2021/03/18 10:36:55;;;;;;;86.68;45.72;;;;;;;8.44;54.92;71496.94;5010282;28;20467;-81
2021/03/18 10:39:23;;;;;;;85.93;47.03;;;;;;;8.46;54.41;71499.31;5009807;28;20022;-84
2021/03/18 10:41:50;;;;;;;85.32;46.58;;;;;;;9.39;54.17;71603.09;4992047;28;20021;-81
2021/03/18 10:44:19;;;;;;;79.15;45.08;;;;;;;8.60;54.73;71509.91;4994393;28;20034;-81
2021/03/18 10:46:46;;;;;;;73.93;47.42;;;;;;;9.52;54.57;71620.72;4993419;28;20036;-81
2021/03/18 10:49:15;;;;;;;81.40;43.45;;;;;;;9.58;53.19;71627.84;5010026;28;20527;-81
2021/03/18 10:51:52;;;;;;;82.03;46.33;;;;;;;9.64;53.09;71631.66;4993364;28;20034;-82
2021/03/18 10:54:23;;;;;;;78.20;44.13;;;;;;;8.03;53.57;71450.56;5010301;28;20438;-81
2021/03/18 10:56:51;;;;;;;76.45;44.58;;;;;;;8.78;54.64;71533.47;5011064;28;20034;-79
2021/03/18 10:59:20;;;;;;;71.20;46.17;;;;;;;8.38;54.28;71487.06;5005577;28;20065;-80
2021/03/18 11:01:48;;;;;;;89.28;50.33;;;;;;;7.24;56.41;71354.75;5007756;28;21173;-82
2021/03/18 11:04:15;;;;;;;84.40;47.55;;;;;;;8.39;57.59;71491.00;4988784;28;20033;-81
2021/03/18 11:06:52;;;;;;;80.97;48.08;;;;;;;7.05;58.29;71335.50;5006500;28;20053;-84
2021/03/18 11:09:19;;;;;;;101.10;46.28;;;;;;;8.36;58.73;71488.03;5007324;28;20129;-80
2021/03/18 11:12:00;;;;;;;78.85;43.95;;;;;;;8.32;60.81;71481.13;5003074;28;20026;-81
2021/03/18 11:14:28;;;;;;;68.22;39.95;;;;;;;7.10;61.63;71340.84;5011439;28;20062;-82
2021/03/18 11:17:08;;;;;;;73.53;41.13;;;;;;;7.87;61.96;71428.81;4977951;28;20030;-81
2021/03/18 11:19:35;;;;;;;72.63;37.53;;;;;;;7.63;62.83;71404.19;4997188;28;20098;-81
2021/03/18 11:22:06;;;;;;;81.65;35.90;;;;;;;7.29;62.95;71365.56;4992827;28;20049;-79
2021/03/18 11:24:33;;;;;;;65.97;33.95;;;;;;;5.87;63.27;71203.44;4991938;28;20040;-85
2021/03/18 11:27:04;;;;;;;71.22;36.47;;;;;;;6.47;63.21;71271.16;4973478;28;20033;-82
2021/03/18 11:29:36;;;;;;;65.22;36.53;;;;;;;7.33;60.81;71369.72;4997039;28;20084;-81
2021/03/18 11:32:06;;;;;;;58.47;34.50;;;;;;;7.65;59.39;71403.84;5010531;28;20084;-82
2021/03/18 11:34:38;;;;;;;78.23;37.60;;;;;;;7.45;59.75;71384.00;5010380;28;20483;-82
2021/03/18 11:37:08;;;;;;;64.95;36.15;;;;;;;7.57;59.30;71388.84;4997139;28;20375;-83